createdAt,value
2023-03-30T00:01:15.692Z,10.61
2023-03-30T00:04:20.208Z,10.38
2023-03-30T00:07:26.215Z,10.77
2023-03-30T00:10:30.785Z,10.93
2023-03-30T00:13:35.936Z,11.23
2023-03-30T00:16:39.722Z,11.79
2023-03-30T00:19:44.364Z,11.50
2023-03-30T00:22:48.789Z,11.47
2023-03-30T00:25:53.100Z,11.48
2023-03-30T00:28:57.223Z,11.61
2023-03-30T00:32:02.090Z,11.90
2023-03-30T00:35:06.863Z,11.48
2023-03-30T00:38:11.098Z,11.37
2023-03-30T00:41:15.519Z,11.23
2023-03-30T00:44:56.665Z,11.95
2023-03-30T00:48:10.214Z,12.68
2023-03-30T00:51:15.919Z,13.89
2023-03-30T00:54:21.843Z,13.30
2023-03-30T00:57:28.416Z,14.92
2023-03-30T01:00:33.952Z,14.64
2023-03-30T01:03:46.476Z,14.28
2023-03-30T01:06:52.873Z,14.10
2023-03-30T01:09:57.403Z,13.52
2023-03-30T01:13:02.390Z,14.37
2023-03-30T01:16:24.808Z,13.45
2023-03-30T01:19:49.096Z,12.80
2023-03-30T01:23:28.077Z,11.70
2023-03-30T01:26:35.339Z,11.19
2023-03-30T01:30:25.602Z,11.78
2023-03-30T01:33:45.293Z,11.52
2023-03-30T01:37:14.054Z,12.81
2023-03-30T01:41:10.923Z,13.25
2023-03-30T01:44:27.302Z,14.29
2023-03-30T01:47:44.336Z,14.57
2023-03-30T01:50:54.300Z,14.48
2023-03-30T01:54:23.603Z,14.33
2023-03-30T01:57:43.114Z,14.90
2023-03-30T02:00:51.082Z,13.48
2023-03-30T02:03:59.901Z,13.70
2023-03-30T02:07:11.296Z,14.48
2023-03-30T02:10:31.853Z,14.08
2023-03-30T02:13:43.478Z,13.94
2023-03-30T02:16:57.077Z,14.75
2023-03-30T02:20:07.400Z,14.54
2023-03-30T02:23:18.862Z,14.25
2023-03-30T02:26:24.082Z,15.00
2023-03-30T02:29:29.856Z,15.34
2023-03-30T02:32:43.041Z,15.17
2023-03-30T02:35:47.277Z,15.79
2023-03-30T02:39:27.432Z,15.15
2023-03-30T02:43:12.983Z,15.47
2023-03-30T02:46:38.607Z,15.26
2023-03-30T02:49:43.039Z,14.32
2023-03-30T02:53:11.115Z,14.24
2023-03-30T02:56:34.916Z,13.27
2023-03-30T03:00:09.012Z,13.68
2023-03-30T03:03:25.473Z,13.56
2023-03-30T03:06:33.896Z,13.10
2023-03-30T03:09:38.191Z,13.57
2023-03-30T03:12:45.476Z,14.06
2023-03-30T03:15:51.842Z,14.28
2023-03-30T03:18:56.248Z,13.74
2023-03-30T03:22:01.820Z,13.55
2023-03-30T03:25:11.184Z,13.82
2023-03-30T03:28:32.907Z,13.28
2023-03-30T03:31:42.864Z,13.06
2023-03-30T03:34:47.315Z,13.66
2023-03-30T03:37:51.842Z,14.29
2023-03-30T03:40:58.834Z,14.77
2023-03-30T03:44:03.910Z,14.78
2023-03-30T03:47:08.398Z,14.65
2023-03-30T03:50:12.849Z,14.95
2023-03-30T03:53:17.332Z,15.35
2023-03-30T03:56:22.193Z,15.12
2023-03-30T03:59:26.707Z,15.05
2023-03-30T04:02:31.893Z,14.41
2023-03-30T04:05:36.887Z,14.53
2023-03-30T04:08:41.195Z,14.48
2023-03-30T04:12:03.343Z,14.44
2023-03-30T04:15:28.142Z,14.80
2023-03-30T04:18:47.733Z,14.89
2023-03-30T04:22:16.620Z,14.45
2023-03-30T04:25:37.863Z,14.55
2023-03-30T04:29:21.666Z,14.32
2023-03-30T04:33:04.697Z,14.13
2023-03-30T04:36:30.478Z,13.72
2023-03-30T04:39:42.362Z,13.39
2023-03-30T04:43:16.685Z,14.00
2023-03-30T04:46:31.063Z,14.11
2023-03-30T04:49:49.510Z,13.56
2023-03-30T04:52:59.284Z,13.44
2023-03-30T04:56:23.718Z,13.69
2023-03-30T04:59:38.784Z,13.69
2023-03-30T05:03:07.434Z,13.63
2023-03-30T05:06:42.797Z,13.38
2023-03-30T05:10:19.232Z,13.33
2023-03-30T05:14:00.985Z,13.52
2023-03-30T05:17:21.123Z,13.35
2023-03-30T05:20:37.735Z,13.18
2023-03-30T05:23:58.978Z,13.39
2023-03-30T05:27:38.456Z,13.23
2023-03-30T05:31:12.159Z,12.94
2023-03-30T05:34:26.167Z,13.23
2023-03-30T05:37:52.700Z,13.27
2023-03-30T05:41:29.288Z,13.14
2023-03-30T05:44:57.210Z,12.99
2023-03-30T05:48:35.110Z,13.27
2023-03-30T05:51:55.932Z,13.14
2023-03-30T05:55:31.432Z,12.77
2023-03-30T05:58:53.005Z,12.82
2023-03-30T06:02:20.726Z,12.74
2023-03-30T06:05:25.719Z,12.34
2023-03-30T06:08:31.464Z,12.94
2023-03-30T06:11:39.661Z,13.06
2023-03-30T06:14:54.278Z,12.50
2023-03-30T06:18:24.613Z,12.33
2023-03-30T06:21:41.580Z,12.37
2023-03-30T06:25:05.053Z,12.49
2023-03-30T06:28:09.682Z,12.52
2023-03-30T06:31:14.212Z,12.32
2023-03-30T06:34:19.832Z,12.13
2023-03-30T06:37:24.471Z,12.11
2023-03-30T06:40:28.799Z,12.41
2023-03-30T06:43:34.146Z,12.68
2023-03-30T06:46:45.549Z,12.53
2023-03-30T06:49:49.546Z,11.88
2023-03-30T06:53:12.423Z,12.14
2023-03-30T06:56:19.526Z,11.92
2023-03-30T06:59:40.615Z,12.27
2023-03-30T07:03:11.276Z,12.33
2023-03-30T07:06:25.216Z,12.10
2023-03-30T07:09:29.509Z,11.86
2023-03-30T07:12:33.850Z,12.00
2023-03-30T07:15:38.713Z,12.12
2023-03-30T07:18:42.965Z,11.82
2023-03-30T07:21:47.350Z,11.67
2023-03-30T07:24:54.105Z,11.83
2023-03-30T07:27:58.640Z,11.67
2023-03-30T07:31:12.068Z,11.68
2023-03-30T07:34:18.689Z,11.63
2023-03-30T07:37:29.726Z,11.51
2023-03-30T07:40:34.357Z,11.69
2023-03-30T07:43:43.989Z,11.50
2023-03-30T07:46:48.387Z,11.62
2023-03-30T07:50:01.212Z,11.37
2023-03-30T07:53:06.473Z,11.14
2023-03-30T07:56:11.520Z,10.91
2023-03-30T07:59:25.082Z,10.81
2023-03-30T08:02:33.648Z,10.90
2023-03-30T08:05:38.038Z,10.73
2023-03-30T08:08:51.806Z,10.79
2023-03-30T08:11:56.236Z,10.70
2023-03-30T08:15:05.432Z,10.56
2023-03-30T08:18:09.891Z,10.42
2023-03-30T08:21:14.694Z,10.32
2023-03-30T08:24:34.814Z,10.09
2023-03-30T08:27:39.240Z,10.25
2023-03-30T08:30:43.177Z,10.28
2023-03-30T08:33:47.389Z,10.38
2023-03-30T08:36:51.744Z,10.30
2023-03-30T08:39:58.747Z,10.62
2023-03-30T08:43:23.759Z,10.58
2023-03-30T08:46:30.241Z,10.14
2023-03-30T08:49:39.832Z,10.33
2023-03-30T08:52:47.823Z,10.09
2023-03-30T08:56:34.191Z,10.31
2023-03-30T08:59:47.372Z,9.94
2023-03-30T09:03:00.720Z,10.06
2023-03-30T09:06:25.834Z,10.13
2023-03-30T09:09:33.400Z,10.00
2023-03-30T09:12:52.583Z,9.64
2023-03-30T09:16:12.525Z,9.54
2023-03-30T09:19:27.263Z,9.26
2023-03-30T09:22:43.162Z,9.17
2023-03-30T09:25:57.805Z,9.00
2023-03-30T09:29:20.824Z,8.85
2023-03-30T09:32:38.142Z,8.66
2023-03-30T09:35:45.562Z,8.42
2023-03-30T09:38:51.222Z,8.16
2023-03-30T09:42:29.248Z,8.05
2023-03-30T09:45:35.731Z,7.74
2023-03-30T09:48:42.413Z,7.30
2023-03-30T09:52:26.542Z,7.15
2023-03-30T09:55:36.570Z,6.76
2023-03-30T09:58:40.891Z,6.85
2023-03-30T10:01:45.105Z,7.23
2023-03-30T10:04:56.122Z,7.14
2023-03-30T10:08:04.124Z,6.89
2023-03-30T10:11:09.905Z,6.81
2023-03-30T10:14:28.977Z,6.40
2023-03-30T10:17:34.055Z,5.99
2023-03-30T10:20:40.206Z,5.98
2023-03-30T10:23:48.142Z,5.82
2023-03-30T10:26:56.633Z,5.71
2023-03-30T10:30:12.374Z,5.42
2023-03-30T10:33:17.037Z,4.80
2023-03-30T10:36:22.445Z,4.67
2023-03-30T10:39:33.446Z,4.79
2023-03-30T10:42:38.301Z,4.83
2023-03-30T10:45:50.061Z,4.44
2023-03-30T10:48:57.468Z,4.47
2023-03-30T10:52:11.017Z,4.72
2023-03-30T10:55:21.562Z,4.27
2023-03-30T10:58:31.694Z,4.41
2023-03-30T11:01:57.376Z,4.52
2023-03-30T11:05:13.305Z,4.14
2023-03-30T11:08:23.715Z,3.86
2023-03-30T11:11:41.186Z,3.73
2023-03-30T11:14:53.954Z,3.60
2023-03-30T11:18:22.865Z,3.38
2023-03-30T11:21:35.526Z,3.37
2023-03-30T11:24:43.119Z,3.17
2023-03-30T11:28:31.739Z,3.51
2023-03-30T11:31:45.116Z,3.14
2023-03-30T11:35:07.137Z,3.37
2023-03-30T11:38:14.751Z,3.18
2023-03-30T11:41:33.594Z,2.82
2023-03-30T11:44:38.793Z,3.01
2023-03-30T11:48:16.574Z,2.64
2023-03-30T11:51:48.308Z,2.50
2023-03-30T11:55:03.039Z,2.86
2023-03-30T11:58:24.866Z,2.81
2023-03-30T12:01:59.705Z,2.56
2023-03-30T12:05:21.846Z,2.39
2023-03-30T12:09:13.988Z,2.30
2023-03-30T12:12:25.371Z,1.52
2023-03-30T12:15:39.220Z,1.95
2023-03-30T12:18:49.868Z,1.75
2023-03-30T12:22:27.247Z,2.33
2023-03-30T12:26:15.345Z,2.09
2023-03-30T12:30:00.272Z,2.08
2023-03-30T12:33:04.563Z,2.05
2023-03-30T12:36:40.816Z,1.68
2023-03-30T12:40:00.653Z,1.75
2023-03-30T12:43:17.496Z,1.57
2023-03-30T12:46:36.714Z,0.45
2023-03-30T12:50:10.269Z,1.39
2023-03-30T12:53:32.547Z,1.65
2023-03-30T12:56:52.327Z,1.95
2023-03-30T13:00:26.776Z,1.28
2023-03-30T13:03:40.191Z,1.37
2023-03-30T13:06:50.346Z,1.33
2023-03-30T13:09:56.466Z,0.86
2023-03-30T13:13:03.196Z,1.32
2023-03-30T13:16:11.102Z,1.40
2023-03-30T13:19:33.872Z,1.79
2023-03-30T13:22:38.323Z,2.03
2023-03-30T13:26:04.181Z,2.23
2023-03-30T13:29:13.020Z,2.01
2023-03-30T13:32:41.904Z,2.03
2023-03-30T13:36:17.258Z,2.03
2023-03-30T13:39:44.712Z,1.81
2023-03-30T13:43:20.445Z,1.98
2023-03-30T13:46:49.328Z,1.37
2023-03-30T13:50:04.219Z,1.14
2023-03-30T13:53:12.138Z,1.15
2023-03-30T13:56:17.049Z,1.25
2023-03-30T13:59:25.752Z,1.08
2023-03-30T14:02:32.042Z,0.70
2023-03-30T14:05:39.648Z,0.56
2023-03-30T14:08:48.573Z,0.50
2023-03-30T14:12:03.368Z,0.53
2023-03-30T14:15:26.656Z,0.38
2023-03-30T14:18:31.609Z,0.25
2023-03-30T14:21:38.935Z,0.15
2023-03-30T14:24:58.223Z,0.47
2023-03-30T14:28:22.471Z,0.40
2023-03-30T14:31:30.303Z,0.32
2023-03-30T14:34:35.172Z,0.20
2023-03-30T14:37:40.320Z,-0.09
2023-03-30T14:40:45.458Z,0.00
2023-03-30T14:43:57.736Z,-0.14
2023-03-30T14:47:02.075Z,-0.33
2023-03-30T14:50:11.364Z,-0.01
2023-03-30T14:53:17.276Z,-0.08
2023-03-30T14:56:23.661Z,-0.23
2023-03-30T14:59:29.756Z,0.01
2023-03-30T15:02:38.356Z,-0.15
2023-03-30T15:05:43.988Z,-0.54
2023-03-30T15:08:49.484Z,-0.81
2023-03-30T15:12:04.439Z,-0.33
2023-03-30T15:15:13.515Z,-0.12
2023-03-30T15:18:22.831Z,-0.10
2023-03-30T15:21:31.502Z,-0.48
2023-03-30T15:24:38.324Z,-0.55
2023-03-30T15:27:48.212Z,-0.46
2023-03-30T15:30:54.597Z,-0.66
2023-03-30T15:34:02.883Z,-0.59
2023-03-30T15:37:22.994Z,-0.49
2023-03-30T15:40:37.920Z,-0.51
2023-03-30T15:43:58.611Z,-0.63
2023-03-30T15:47:03.641Z,-0.79
2023-03-30T15:50:14.550Z,-0.91
2023-03-30T15:53:50.188Z,-0.80
2023-03-30T15:57:09.271Z,-0.74
2023-03-30T16:00:21.525Z,-0.51
2023-03-30T16:03:48.616Z,-0.98
2023-03-30T16:06:56.375Z,-1.09
2023-03-30T16:10:03.235Z,-1.04
2023-03-30T16:13:08.961Z,-0.74
2023-03-30T16:16:15.093Z,-0.77
2023-03-30T16:19:20.698Z,-0.66
2023-03-30T16:22:24.943Z,-0.83
2023-03-30T16:28:37.132Z,-0.98
2023-03-30T16:31:41.682Z,-1.21
2023-03-30T16:34:47.124Z,-1.44
2023-03-30T16:37:51.145Z,-1.49
2023-03-30T16:40:58.840Z,-1.73
2023-03-30T16:44:03.005Z,-1.58
2023-03-30T16:50:28.712Z,-1.68
2023-03-30T16:53:33.296Z,-1.72
2023-03-30T16:56:38.649Z,-1.52
2023-03-30T16:59:43.392Z,-1.83
2023-03-30T17:02:48.395Z,-2.02
2023-03-30T17:05:52.822Z,-1.73
2023-03-30T17:08:57.010Z,-1.75
2023-03-30T17:12:01.524Z,-1.70
2023-03-30T17:15:09.595Z,-1.79
2023-03-30T17:18:22.305Z,-1.99
2023-03-30T17:21:26.989Z,-2.30
2023-03-30T17:24:31.155Z,-2.56
2023-03-30T17:27:35.675Z,-2.46
2023-03-30T17:30:43.984Z,-2.17
2023-03-30T17:33:49.314Z,-2.15
2023-03-30T17:36:53.898Z,-2.50
2023-03-30T17:39:58.208Z,-2.42
2023-03-30T17:43:02.274Z,-2.29
2023-03-30T17:46:07.047Z,-2.22
2023-03-30T17:49:18.623Z,-1.95
2023-03-30T17:52:23.070Z,-2.27
2023-03-30T17:55:30.217Z,-1.95
2023-03-30T17:58:36.744Z,-1.97
2023-03-30T18:01:41.188Z,-1.80
2023-03-30T18:04:45.554Z,-2.15
2023-03-30T18:07:49.752Z,-2.09
2023-03-30T18:10:58.750Z,-1.92
2023-03-30T18:14:03.295Z,-2.10
2023-03-30T18:17:07.955Z,-2.34
2023-03-30T18:20:22.108Z,-2.09
2023-03-30T18:23:26.787Z,-2.38
2023-03-30T18:26:33.046Z,-2.50
2023-03-30T18:29:37.810Z,-2.58
2023-03-30T18:32:47.291Z,-2.85
2023-03-30T18:35:53.157Z,-3.01
2023-03-30T18:38:58.024Z,-3.06
2023-03-30T18:42:02.477Z,-2.74
2023-03-30T18:45:07.508Z,-3.01
2023-03-30T18:48:17.265Z,-2.60
2023-03-30T18:51:22.522Z,-2.55
2023-03-30T18:54:27.062Z,-2.56
2023-03-30T18:57:31.568Z,-2.94
2023-03-30T19:00:37.152Z,-2.68
2023-03-30T19:03:41.617Z,-2.73
2023-03-30T19:06:47.071Z,-3.00
2023-03-30T19:09:51.680Z,-3.00
2023-03-30T19:12:57.060Z,-3.14
2023-03-30T19:16:05.238Z,-2.84
2023-03-30T19:19:15.405Z,-3.14
2023-03-30T19:22:19.904Z,-3.12
2023-03-30T19:25:26.930Z,-3.27
2023-03-30T19:28:31.974Z,-3.22
2023-03-30T19:31:38.269Z,-2.96
2023-03-30T19:34:42.707Z,-2.60
2023-03-30T19:37:47.711Z,-2.78
2023-03-30T19:40:52.422Z,-3.13
2023-03-30T19:43:56.773Z,-3.31
2023-03-30T19:47:01.380Z,-3.56
2023-03-30T19:50:11.196Z,-3.32
2023-03-30T19:53:15.894Z,-3.36
2023-03-30T19:56:45.083Z,-3.20
2023-03-30T19:59:50.532Z,-3.14
2023-03-30T20:02:56.147Z,-3.29
2023-03-30T20:06:00.553Z,-3.22
2023-03-30T20:09:05.146Z,-3.19
2023-03-30T20:12:10.213Z,-3.16
2023-03-30T20:15:15.314Z,-3.33
2023-03-30T20:18:21.493Z,-3.58
2023-03-30T20:21:27.403Z,-3.50
2023-03-30T20:24:31.848Z,-3.47
2023-03-30T20:27:37.078Z,-3.31
2023-03-30T20:30:42.192Z,-3.46
2023-03-30T20:33:46.448Z,-3.42
2023-03-30T20:36:51.436Z,-3.37
2023-03-30T20:40:04.207Z,-3.37
2023-03-30T20:43:11.436Z,-3.60
2023-03-30T20:46:19.202Z,-3.55
2023-03-30T20:49:23.411Z,-3.38
2023-03-30T20:52:28.651Z,-3.37
2023-03-30T20:55:32.790Z,-3.28
2023-03-30T20:58:38.629Z,-3.04
2023-03-30T21:01:44.512Z,-3.06
2023-03-30T21:04:49.119Z,-3.29
2023-03-30T21:07:56.869Z,-3.16
2023-03-30T21:11:02.724Z,-3.05
2023-03-30T21:14:12.889Z,-3.11
2023-03-30T21:17:17.370Z,-2.87
2023-03-30T21:20:22.203Z,-2.78
2023-03-30T21:23:27.456Z,-2.33
2023-03-30T21:26:32.362Z,-1.94
2023-03-30T21:29:36.826Z,-1.54
2023-03-30T21:32:42.192Z,-1.07
2023-03-30T21:35:54.552Z,-0.51
2023-03-30T21:39:00.255Z,0.61
2023-03-30T21:42:03.869Z,-0.10
2023-03-30T21:45:08.337Z,-0.31
2023-03-30T21:48:15.670Z,0.06
2023-03-30T21:51:27.489Z,0.49
2023-03-30T21:54:32.286Z,1.41
2023-03-30T21:57:46.006Z,2.22
2023-03-30T22:00:58.329Z,2.39
2023-03-30T22:04:12.988Z,3.01
2023-03-30T22:07:17.473Z,3.89
2023-03-30T22:10:22.296Z,4.51
2023-03-30T22:13:27.554Z,5.29
2023-03-30T22:16:33.983Z,5.69
2023-03-30T22:19:38.717Z,6.98
2023-03-30T22:22:43.091Z,6.88
2023-03-30T22:25:47.796Z,6.83
2023-03-30T22:28:52.169Z,8.11
2023-03-30T22:31:57.026Z,7.23
2023-03-30T22:35:01.918Z,6.80
2023-03-30T22:38:07.341Z,6.54
2023-03-30T22:41:11.318Z,6.47
2023-03-30T22:44:15.550Z,6.59
2023-03-30T22:47:19.422Z,7.08
2023-03-30T22:50:25.276Z,8.32
2023-03-30T22:53:31.057Z,7.52
2023-03-30T22:56:35.428Z,8.10
2023-03-30T22:59:39.404Z,7.20
2023-03-30T23:02:44.713Z,6.53
2023-03-30T23:05:56.744Z,6.98
2023-03-30T23:09:05.357Z,7.88
2023-03-30T23:12:10.174Z,7.76
2023-03-30T23:15:15.160Z,8.74
2023-03-30T23:18:19.521Z,8.45
2023-03-30T23:21:23.589Z,8.34
2023-03-30T23:24:28.034Z,8.62
2023-03-30T23:27:32.088Z,9.08
2023-03-30T23:30:39.019Z,9.56
2023-03-30T23:33:44.405Z,10.34
2023-03-30T23:36:50.649Z,10.66
2023-03-30T23:39:54.944Z,9.63
2023-03-30T23:42:59.199Z,9.11
2023-03-30T23:46:03.168Z,9.26
2023-03-30T23:49:07.670Z,9.44
2023-03-30T23:52:12.756Z,8.72
2023-03-30T23:55:19.276Z,8.11
2023-03-30T23:58:24.369Z,8.82
